Time;durP1;ratioP1;P1;durP2;ratioP2;P2;SDS_P1;SDS_P2;PMS_P1;PMS_P2;Temp;Humidity;BMP_temperature;BMP_pressure;BME280_temperature;BME280_humidity;BME280_pressure;Samples;Min_cycle;Max_cycle;Signal;HPM_P1;HPM_P2
2022/09/09 00:00:18;;;;;;;;;;;20.70;57.10;;;;;;6275021;22;19976;-86
2022/09/09 00:02:48;;;;;;;;;;;20.70;57.10;;;;;;6274907;22;19926;-87
2022/09/09 00:05:18;;;;;;;;;;;20.70;57.00;;;;;;6275050;22;19981;-89
2022/09/09 00:07:47;;;;;;;;;;;20.80;56.90;;;;;;6273889;22;19915;-84
2022/09/09 00:10:13;;;;;;;;;;;20.80;56.90;;;;;;6274478;22;19914;-91
2022/09/09 00:12:44;;;;;;;;;;;20.80;56.80;;;;;;6273299;22;19911;-89
2022/09/09 00:15:19;;;;;;;;;;;20.80;56.80;;;;;;6275524;22;19903;-86
2022/09/09 00:17:44;;;;;;;;;;;20.80;56.90;;;;;;6274299;22;19914;-88
2022/09/09 00:20:21;;;;;;;;;;;20.70;56.80;;;;;;6273940;22;19911;-88
2022/09/09 00:22:59;;;;;;;;;;;20.70;56.80;;;;;;6272946;22;19926;-85
2022/09/09 00:25:46;;;;;;;;;;;20.70;56.80;;;;;;6272863;22;19977;-88
2022/09/09 00:28:17;;;;;;;;;;;20.70;56.80;;;;;;6272010;22;20245;-88
2022/09/09 00:30:43;;;;;;;;;;;20.70;56.90;;;;;;6276532;22;19907;-91
2022/09/09 00:33:15;;;;;;;;;;;20.70;56.90;;;;;;6275306;22;19914;-85
2022/09/09 00:36:00;;;;;;;;;;;20.70;57.10;;;;;;6273821;22;19915;-92
2022/09/09 00:38:37;;;;;;;;;;;20.80;57.10;;;;;;6272855;22;20447;-90
2022/09/09 00:41:10;;;;;;;;;;;20.90;57.20;;;;;;6271719;22;19911;-88
2022/09/09 00:43:36;;;;;;;;;;;21.10;57.10;;;;;;6274462;22;19907;-91
2022/09/09 00:46:02;;;;;;;;;;;21.10;56.90;;;;;;6271590;22;19975;-87
2022/09/09 00:48:33;;;;;;;;;;;21.20;56.70;;;;;;6273570;22;19958;-91
2022/09/09 00:51:08;;;;;;;;;;;21.20;56.50;;;;;;6273805;22;19907;-87
2022/09/09 00:53:38;;;;;;;;;;;21.10;56.40;;;;;;6273359;22;20385;-91
2022/09/09 00:56:14;;;;;;;;;;;21.00;56.60;;;;;;6273972;22;19911;-88
2022/09/09 00:58:46;;;;;;;;;;;21.00;56.60;;;;;;6273520;22;19921;-91
2022/09/09 01:01:12;;;;;;;;;;;21.00;56.70;;;;;;6274348;22;19919;-88
2022/09/09 01:03:54;;;;;;;;;;;20.90;56.80;;;;;;6272571;22;19915;-85
2022/09/09 01:06:36;;;;;;;;;;;20.90;57.00;;;;;;6271918;22;19913;-90
2022/09/09 01:09:11;;;;;;;;;;;20.90;57.00;;;;;;6274148;22;19907;-88
2022/09/09 01:11:42;;;;;;;;;;;20.80;57.00;;;;;;6273056;22;19966;-88
2022/09/09 01:14:30;;;;;;;;;;;20.90;57.10;;;;;;6273425;22;19982;-91
2022/09/09 01:16:57;;;;;;;;;;;20.90;57.00;;;;;;6273518;22;19911;-87
2022/09/09 01:19:50;;;;;;;;;;;20.90;57.10;;;;;;6273326;22;19947;-89
2022/09/09 01:22:31;;;;;;;;;;;21.00;57.10;;;;;;6266486;22;19974;-89
2022/09/09 01:25:15;;;;;;;;;;;21.00;57.10;;;;;;6274864;22;19911;-86
2022/09/09 01:27:41;;;;;;;;;;;21.00;57.00;;;;;;6270907;22;19915;-89
2022/09/09 01:30:12;;;;;;;;;;;20.90;56.90;;;;;;6274228;22;19978;-88
2022/09/09 01:32:41;;;;;;;;;;;20.90;56.90;;;;;;6272758;22;19945;-88
2022/09/09 01:35:12;;;;;;;;;;;20.90;56.90;;;;;;6271644;22;20338;-91
2022/09/09 01:37:38;;;;;;;;;;;20.90;56.90;;;;;;6273432;22;19941;-85
2022/09/09 01:40:04;;;;;;;;;;;21.00;56.80;;;;;;6273375;22;19907;-85
2022/09/09 01:42:29;;;;;;;;;;;21.00;56.70;;;;;;6272899;22;20441;-87
2022/09/09 01:44:55;;;;;;;;;;;21.10;56.70;;;;;;6273176;22;19939;-85
2022/09/09 01:47:20;;;;;;;;;;;21.20;56.70;;;;;;6274872;22;20002;-88
2022/09/09 01:49:46;;;;;;;;;;;21.20;56.60;;;;;;6273044;22;19923;-87
2022/09/09 01:52:11;;;;;;;;;;;21.30;56.50;;;;;;6271258;22;19934;-91
2022/09/09 01:54:37;;;;;;;;;;;21.30;56.30;;;;;;6273335;22;20226;-88
2022/09/09 01:57:35;;;;;;;;;;;21.40;56.20;;;;;;6273016;22;19915;-91
2022/09/09 02:00:07;;;;;;;;;;;21.40;56.00;;;;;;6204827;22;20452;-87
2022/09/09 02:02:36;;;;;;;;;;;21.50;56.00;;;;;;6274544;22;20331;-87
2022/09/09 02:05:20;;;;;;;;;;;21.50;55.90;;;;;;6275529;22;20276;-92
2022/09/09 02:07:50;;;;;;;;;;;21.60;55.80;;;;;;6273055;22;20570;-88
2022/09/09 02:10:31;;;;;;;;;;;21.60;55.70;;;;;;6271967;22;19905;-86
2022/09/09 02:13:26;;;;;;;;;;;21.60;55.60;;;;;;6273742;22;20387;-86
2022/09/09 02:16:03;;;;;;;;;;;21.50;55.50;;;;;;6247376;22;19943;-88
2022/09/09 02:18:38;;;;;;;;;;;21.50;55.50;;;;;;6272549;22;19910;-86
2022/09/09 02:21:05;;;;;;;;;;;21.40;55.50;;;;;;6271594;22;20341;-88
2022/09/09 02:23:31;;;;;;;;;;;21.30;55.50;;;;;;6273264;22;19904;-87
2022/09/09 02:25:57;;;;;;;;;;;21.30;55.50;;;;;;6273041;22;19926;-91
2022/09/09 02:28:25;;;;;;;;;;;21.30;55.50;;;;;;6270702;22;19953;-87
2022/09/09 02:30:54;;;;;;;;;;;21.20;55.60;;;;;;6273899;22;19912;-86
2022/09/09 02:33:26;;;;;;;;;;;21.10;55.50;;;;;;6272925;22;19958;-92
2022/09/09 02:35:52;;;;;;;;;;;21.10;55.60;;;;;;6271124;22;20414;-91
2022/09/09 02:38:20;;;;;;;;;;;21.00;55.70;;;;;;6271167;22;19903;-87
2022/09/09 02:40:45;;;;;;;;;;;20.90;55.80;;;;;;6272961;22;19912;-87
2022/09/09 02:43:11;;;;;;;;;;;21.00;55.80;;;;;;6271852;22;19937;-88
2022/09/09 02:45:42;;;;;;;;;;;21.00;55.90;;;;;;6272892;22;19926;-91
2022/09/09 02:48:34;;;;;;;;;;;21.00;56.00;;;;;;6271360;22;20365;-87
2022/09/09 02:50:59;;;;;;;;;;;21.10;56.00;;;;;;6272725;22;20002;-87
2022/09/09 02:53:40;;;;;;;;;;;21.10;55.90;;;;;;6272161;22;19935;-87
2022/09/09 02:56:09;;;;;;;;;;;21.20;55.80;;;;;;6275622;22;19986;-85
2022/09/09 02:58:35;;;;;;;;;;;21.30;55.80;;;;;;6272924;22;20279;-88
2022/09/09 03:01:02;;;;;;;;;;;21.30;55.70;;;;;;6273387;22;19908;-91
2022/09/09 03:03:28;;;;;;;;;;;21.30;55.70;;;;;;6274802;22;19927;-85
2022/09/09 03:05:54;;;;;;;;;;;21.40;55.50;;;;;;6274724;22;19931;-90
2022/09/09 03:08:20;;;;;;;;;;;21.40;55.50;;;;;;6275421;22;19915;-90
2022/09/09 03:10:45;;;;;;;;;;;21.50;55.40;;;;;;6275430;22;19907;-90
2022/09/09 03:13:12;;;;;;;;;;;21.50;55.40;;;;;;6273942;22;19914;-88
2022/09/09 03:15:38;;;;;;;;;;;21.50;55.30;;;;;;6274379;22;20290;-85
2022/09/09 03:18:03;;;;;;;;;;;21.50;55.20;;;;;;6272092;22;19957;-85
2022/09/09 03:20:30;;;;;;;;;;;21.50;55.30;;;;;;6274436;22;19990;-92
2022/09/09 03:22:56;;;;;;;;;;;21.50;55.30;;;;;;6273426;22;19915;-91
2022/09/09 03:25:25;;;;;;;;;;;21.50;55.30;;;;;;6275059;22;19907;-87
2022/09/09 03:27:54;;;;;;;;;;;21.50;55.30;;;;;;6274280;22;19911;-87
2022/09/09 03:30:20;;;;;;;;;;;21.50;55.30;;;;;;6273643;22;19903;-90
2022/09/09 03:32:46;;;;;;;;;;;21.60;55.30;;;;;;6273850;22;19910;-88
2022/09/09 03:35:11;;;;;;;;;;;21.50;55.30;;;;;;6272557;22;19959;-87
2022/09/09 03:37:38;;;;;;;;;;;21.50;55.30;;;;;;6272504;22;20315;-85
2022/09/09 03:40:04;;;;;;;;;;;21.50;55.30;;;;;;6275535;22;20178;-91
2022/09/09 03:42:31;;;;;;;;;;;21.60;55.30;;;;;;6277486;22;20220;-90
2022/09/09 03:44:57;;;;;;;;;;;21.60;55.30;;;;;;6275744;22;19934;-91
2022/09/09 03:47:23;;;;;;;;;;;21.50;55.30;;;;;;6274291;22;19919;-88
2022/09/09 03:49:48;;;;;;;;;;;21.50;55.40;;;;;;6274793;22;19903;-91
2022/09/09 03:52:14;;;;;;;;;;;21.50;55.50;;;;;;6272733;22;19912;-85
2022/09/09 03:54:41;;;;;;;;;;;21.50;55.60;;;;;;6272814;22;20235;-88
2022/09/09 03:57:06;;;;;;;;;;;21.50;55.70;;;;;;6272807;22;19986;-88
2022/09/09 03:59:32;;;;;;;;;;;21.50;55.80;;;;;;6273363;22;19934;-91
2022/09/09 04:01:58;;;;;;;;;;;21.60;55.80;;;;;;6275280;22;19919;-90
2022/09/09 04:04:25;;;;;;;;;;;21.60;55.80;;;;;;6275224;22;19903;-85
2022/09/09 04:06:51;;;;;;;;;;;21.60;55.80;;;;;;6273029;22;20238;-88
2022/09/09 04:09:16;;;;;;;;;;;21.60;55.90;;;;;;6273468;22;19939;-89
2022/09/09 04:11:42;;;;;;;;;;;21.60;55.90;;;;;;6278783;22;19970;-86
2022/09/09 04:14:08;;;;;;;;;;;21.60;55.80;;;;;;6272543;22;20195;-90
2022/09/09 04:16:35;;;;;;;;;;;21.70;55.80;;;;;;6275817;22;19930;-90
2022/09/09 04:19:01;;;;;;;;;;;21.70;55.90;;;;;;6274132;22;19954;-90
2022/09/09 04:21:26;;;;;;;;;;;21.60;56.00;;;;;;6276228;22;19931;-87
2022/09/09 04:23:52;;;;;;;;;;;21.60;56.20;;;;;;6274483;22;19907;-87
2022/09/09 04:26:17;;;;;;;;;;;21.50;56.20;;;;;;6274205;22;19918;-84
2022/09/09 04:28:43;;;;;;;;;;;21.60;56.30;;;;;;6274422;22;20466;-86
2022/09/09 04:31:11;;;;;;;;;;;21.50;56.30;;;;;;6274529;22;19950;-87
2022/09/09 04:33:38;;;;;;;;;;;21.60;56.40;;;;;;6278259;22;19916;-87
2022/09/09 04:36:03;;;;;;;;;;;21.70;56.40;;;;;;6275392;22;20215;-86
2022/09/09 04:38:29;;;;;;;;;;;21.70;56.40;;;;;;6272391;22;19965;-88
2022/09/09 04:40:54;;;;;;;;;;;21.70;56.50;;;;;;6274251;22;20533;-87
2022/09/09 04:43:20;;;;;;;;;;;21.60;57.10;;;;;;6275799;22;19907;-86
2022/09/09 04:45:47;;;;;;;;;;;21.50;58.70;;;;;;6274348;22;19911;-88
2022/09/09 04:48:13;;;;;;;;;;;21.30;60.00;;;;;;6274024;22;19985;-87
2022/09/09 04:50:38;;;;;;;;;;;21.10;61.10;;;;;;6272880;22;19943;-89
2022/09/09 04:53:04;;;;;;;;;;;21.00;61.70;;;;;;6273243;22;19931;-91
2022/09/09 04:55:31;;;;;;;;;;;20.90;62.20;;;;;;6273143;22;19938;-87
2022/09/09 04:57:57;;;;;;;;;;;20.80;62.60;;;;;;6271353;22;20259;-84
2022/09/09 05:00:23;;;;;;;;;;;20.80;63.00;;;;;;6271596;22;19978;-87
2022/09/09 05:02:48;;;;;;;;;;;20.80;63.20;;;;;;6273421;22;19961;-90
2022/09/09 05:05:14;;;;;;;;;;;20.80;63.40;;;;;;6271728;22;19910;-85
2022/09/09 05:07:39;;;;;;;;;;;20.70;63.50;;;;;;6272848;22;19907;-90
2022/09/09 05:10:05;;;;;;;;;;;20.80;63.70;;;;;;6273179;22;19910;-85
2022/09/09 05:12:31;;;;;;;;;;;20.80;63.80;;;;;;6273727;22;19918;-87
2022/09/09 05:14:57;;;;;;;;;;;20.80;63.80;;;;;;6272673;22;19908;-85
2022/09/09 05:17:23;;;;;;;;;;;20.80;63.90;;;;;;6271092;22;19926;-85
2022/09/09 05:19:49;;;;;;;;;;;20.90;64.00;;;;;;6271045;22;19982;-87
2022/09/09 05:22:18;;;;;;;;;;;20.90;64.00;;;;;;6271395;22;19919;-85
2022/09/09 05:24:44;;;;;;;;;;;20.90;64.10;;;;;;6271726;22;19908;-87
2022/09/09 05:27:11;;;;;;;;;;;21.00;64.20;;;;;;6273350;22;20339;-87
2022/09/09 05:29:37;;;;;;;;;;;21.00;64.20;;;;;;6273600;22;19985;-90
2022/09/09 05:32:03;;;;;;;;;;;21.10;64.20;;;;;;6275144;22;19919;-87
2022/09/09 05:34:29;;;;;;;;;;;21.10;64.20;;;;;;6272163;22;19914;-87
2022/09/09 05:36:54;;;;;;;;;;;21.00;64.40;;;;;;6272948;22;19970;-88
2022/09/09 05:39:19;;;;;;;;;;;21.00;64.50;;;;;;6272581;22;19907;-85
2022/09/09 05:41:45;;;;;;;;;;;21.00;64.70;;;;;;6270818;22;19922;-86
2022/09/09 05:44:10;;;;;;;;;;;21.00;64.90;;;;;;6272300;22;19911;-88
2022/09/09 05:46:36;;;;;;;;;;;21.00;65.10;;;;;;6272678;22;19915;-88
2022/09/09 05:49:02;;;;;;;;;;;21.00;65.30;;;;;;6269234;22;20401;-88
2022/09/09 05:51:30;;;;;;;;;;;21.00;65.60;;;;;;6268742;22;19943;-89
2022/09/09 05:53:58;;;;;;;;;;;21.10;65.80;;;;;;6269724;22;19922;-88
2022/09/09 05:56:27;;;;;;;;;;;21.10;66.00;;;;;;6266507;22;19911;-85
2022/09/09 05:58:53;;;;;;;;;;;21.30;66.20;;;;;;6268738;22;19933;-87
2022/09/09 06:01:20;;;;;;;;;;;21.40;66.40;;;;;;6268697;22;20389;-87
2022/09/09 06:03:47;;;;;;;;;;;21.60;66.60;;;;;;6266879;22;19965;-85
2022/09/09 06:06:14;;;;;;;;;;;21.80;67.00;;;;;;6268732;22;20317;-86
2022/09/09 06:08:42;;;;;;;;;;;22.00;66.90;;;;;;6268883;22;19922;-87
2022/09/09 06:11:09;;;;;;;;;;;22.30;67.00;;;;;;6266550;22;19918;-89
2022/09/09 06:13:36;;;;;;;;;;;22.40;67.00;;;;;;6269198;22;20204;-88
2022/09/09 06:16:02;;;;;;;;;;;22.70;67.30;;;;;;6268348;22;19911;-89
2022/09/09 06:18:27;;;;;;;;;;;23.10;68.20;;;;;;6267195;22;20323;-86
2022/09/09 06:20:57;;;;;;;;;;;23.60;68.90;;;;;;6269056;22;20576;-86
2022/09/09 06:23:22;;;;;;;;;;;24.10;68.50;;;;;;6267557;22;19977;-88
2022/09/09 06:25:48;;;;;;;;;;;24.50;67.60;;;;;;6266788;22;19915;-86
2022/09/09 06:28:14;;;;;;;;;;;25.00;67.70;;;;;;6267056;22;19935;-90
2022/09/09 06:30:41;;;;;;;;;;;25.40;67.40;;;;;;6266553;22;19926;-89
2022/09/09 06:33:09;;;;;;;;;;;25.80;66.70;;;;;;6267650;22;20170;-86
2022/09/09 06:35:34;;;;;;;;;;;26.20;66.00;;;;;;6266985;22;20293;-88
2022/09/09 06:38:00;;;;;;;;;;;26.40;65.10;;;;;;6271295;22;19930;-87
2022/09/09 06:40:25;;;;;;;;;;;26.60;65.20;;;;;;6269650;22;19914;-90
2022/09/09 06:42:51;;;;;;;;;;;26.90;65.40;;;;;;6270462;22;20006;-92
2022/09/09 06:45:17;;;;;;;;;;;27.40;66.70;;;;;;6270294;22;19950;-92
2022/09/09 06:47:43;;;;;;;;;;;27.90;65.40;;;;;;6268837;22;19907;-90
2022/09/09 06:50:10;;;;;;;;;;;28.30;64.50;;;;;;6269453;22;19914;-90
2022/09/09 06:52:36;;;;;;;;;;;28.80;64.00;;;;;;6269025;22;20352;-86
2022/09/09 06:55:02;;;;;;;;;;;29.10;63.50;;;;;;6269280;22;20216;-89
2022/09/09 06:57:28;;;;;;;;;;;29.40;62.10;;;;;;6269005;22;19915;-90
2022/09/09 06:59:53;;;;;;;;;;;29.70;62.30;;;;;;6266946;22;19977;-89
2022/09/09 07:02:19;;;;;;;;;;;29.80;60.60;;;;;;6271032;22;19923;-90
2022/09/09 07:04:45;;;;;;;;;;;29.70;59.10;;;;;;6267631;22;20315;-88
2022/09/09 07:07:13;;;;;;;;;;;29.60;56.40;;;;;;6268363;22;19957;-86
2022/09/09 07:09:39;;;;;;;;;;;29.30;58.00;;;;;;6266626;22;19907;-91
2022/09/09 07:12:05;;;;;;;;;;;29.00;57.00;;;;;;6273072;22;20009;-89
2022/09/09 07:14:32;;;;;;;;;;;28.70;56.50;;;;;;6269910;22;19908;-89
2022/09/09 07:16:57;;;;;;;;;;;28.30;55.30;;;;;;6269795;22;20199;-89
2022/09/09 07:19:23;;;;;;;;;;;27.90;55.30;;;;;;6266557;22;19919;-90
2022/09/09 07:21:49;;;;;;;;;;;27.60;55.80;;;;;;6270829;22;19923;-91
2022/09/09 07:24:15;;;;;;;;;;;27.30;56.90;;;;;;6270618;22;19907;-86
2022/09/09 07:26:40;;;;;;;;;;;27.20;55.40;;;;;;6267671;22;19920;-86
2022/09/09 07:29:06;;;;;;;;;;;27.00;55.80;;;;;;6266868;22;19915;-89
2022/09/09 07:31:33;;;;;;;;;;;26.80;55.70;;;;;;6270414;22;19915;-88
2022/09/09 07:34:02;;;;;;;;;;;26.70;55.30;;;;;;6269733;22;19907;-85
2022/09/09 07:36:32;;;;;;;;;;;26.60;56.60;;;;;;6268143;22;19918;-89
2022/09/09 07:38:59;;;;;;;;;;;26.60;56.40;;;;;;6270364;22;19911;-90
2022/09/09 07:41:35;;;;;;;;;;;26.60;57.20;;;;;;6268371;22;19937;-86
2022/09/09 07:44:08;;;;;;;;;;;26.60;57.80;;;;;;6269909;22;20287;-91
2022/09/09 07:46:35;;;;;;;;;;;26.60;56.10;;;;;;6269222;22;19985;-85
2022/09/09 07:49:00;;;;;;;;;;;26.50;56.10;;;;;;6268099;22;19907;-88
2022/09/09 07:51:30;;;;;;;;;;;26.50;55.70;;;;;;6270163;22;19916;-85
2022/09/09 07:54:00;;;;;;;;;;;26.50;55.10;;;;;;6273368;22;19918;-89
2022/09/09 07:56:26;;;;;;;;;;;26.30;54.90;;;;;;6268459;22;20224;-93
2022/09/09 07:58:52;;;;;;;;;;;26.40;55.30;;;;;;6265081;22;19907;-88
2022/09/09 08:01:20;;;;;;;;;;;26.40;55.10;;;;;;6270058;22;19950;-88
2022/09/09 08:03:46;;;;;;;;;;;26.40;54.90;;;;;;6270297;22;19907;-91
2022/09/09 08:06:13;;;;;;;;;;;26.40;54.40;;;;;;6271405;22;20566;-88
2022/09/09 08:08:41;;;;;;;;;;;26.50;52.70;;;;;;6263942;22;19914;-89
2022/09/09 08:11:08;;;;;;;;;;;26.50;52.80;;;;;;6268822;22;19927;-88
2022/09/09 08:13:35;;;;;;;;;;;26.60;53.50;;;;;;6271500;22;19982;-86
2022/09/09 08:16:05;;;;;;;;;;;26.60;51.50;;;;;;6268430;22;19954;-86
2022/09/09 08:18:31;;;;;;;;;;;26.70;51.20;;;;;;6266748;22;19911;-88
2022/09/09 08:20:56;;;;;;;;;;;26.90;53.00;;;;;;6271751;22;20502;-88
2022/09/09 08:23:22;;;;;;;;;;;27.20;54.20;;;;;;6269220;22;19922;-86
2022/09/09 08:25:48;;;;;;;;;;;27.50;52.50;;;;;;6268627;22;19961;-91
2022/09/09 08:28:14;;;;;;;;;;;27.80;52.70;;;;;;6269387;22;20369;-91
2022/09/09 08:30:39;;;;;;;;;;;28.20;53.20;;;;;;6268102;22;19919;-90
2022/09/09 08:33:05;;;;;;;;;;;28.50;51.80;;;;;;6269472;22;20257;-89
2022/09/09 08:35:32;;;;;;;;;;;28.80;51.70;;;;;;6269138;22;20372;-86
2022/09/09 08:37:57;;;;;;;;;;;29.10;51.80;;;;;;6269645;22;19934;-85
2022/09/09 08:40:32;;;;;;;;;;;29.60;51.80;;;;;;6272260;22;19930;-89
2022/09/09 08:42:59;;;;;;;;;;;30.10;47.60;;;;;;6267872;22;19922;-91
2022/09/09 08:45:28;;;;;;;;;;;30.70;47.60;;;;;;6273037;22;20566;-89
2022/09/09 08:48:26;;;;;;;;;;;31.30;46.30;;;;;;6271128;22;19915;-86
2022/09/09 08:50:51;;;;;;;;;;;31.90;46.00;;;;;;6201697;22;19946;-88
2022/09/09 08:53:22;;;;;;;;;;;32.60;43.80;;;;;;6268142;22;19962;-88
2022/09/09 08:55:49;;;;;;;;;;;33.10;40.60;;;;;;6268511;22;19918;-93
2022/09/09 08:58:16;;;;;;;;;;;33.20;38.30;;;;;;6267942;22;19977;-85
2022/09/09 09:00:45;;;;;;;;;;;33.10;37.60;;;;;;6269002;22;20472;-89
2022/09/09 09:03:33;;;;;;;;;;;33.00;38.50;;;;;;6271193;22;19981;-90
2022/09/09 09:06:23;;;;;;;;;;;32.90;36.80;;;;;;6269013;22;19993;-92
2022/09/09 09:09:07;;;;;;;;;;;32.70;36.80;;;;;;6270854;22;20385;-90
2022/09/09 09:11:37;;;;;;;;;;;32.40;36.50;;;;;;6270940;22;20138;-92
2022/09/09 09:14:06;;;;;;;;;;;32.30;37.50;;;;;;6269702;22;19912;-88
2022/09/09 09:16:41;;;;;;;;;;;32.40;37.40;;;;;;6268441;22;19943;-92
2022/09/09 09:19:12;;;;;;;;;;;32.40;36.00;;;;;;6267540;22;19923;-90
2022/09/09 09:21:43;;;;;;;;;;;32.50;36.20;;;;;;6268109;22;19954;-91
2022/09/09 09:24:19;;;;;;;;;;;32.70;37.00;;;;;;6270522;22;19990;-88
2022/09/09 09:26:45;;;;;;;;;;;32.70;35.20;;;;;;6268902;22;19911;-91
2022/09/09 09:29:14;;;;;;;;;;;32.80;35.60;;;;;;6264739;22;19914;-93
2022/09/09 09:31:48;;;;;;;;;;;32.70;34.60;;;;;;6268334;22;19911;-91
2022/09/09 09:34:14;;;;;;;;;;;32.50;34.50;;;;;;6269227;22;20715;-90
2022/09/09 09:36:45;;;;;;;;;;;32.40;34.70;;;;;;6271941;22;19911;-86
2022/09/09 09:39:21;;;;;;;;;;;32.40;35.40;;;;;;6271159;22;19918;-89
2022/09/09 09:41:47;;;;;;;;;;;32.50;35.30;;;;;;6270210;22;20014;-88
2022/09/09 09:44:24;;;;;;;;;;;32.50;35.20;;;;;;6268857;22;19939;-84
2022/09/09 09:46:49;;;;;;;;;;;32.60;34.20;;;;;;6269103;22;20253;-88
2022/09/09 09:49:15;;;;;;;;;;;32.80;35.00;;;;;;6270357;22;19918;-89
2022/09/09 09:51:41;;;;;;;;;;;33.00;34.90;;;;;;6267924;22;20279;-92
2022/09/09 09:54:06;;;;;;;;;;;33.20;34.40;;;;;;6272881;22;19923;-84
2022/09/09 09:56:32;;;;;;;;;;;33.10;34.00;;;;;;6269328;22;20290;-89
2022/09/09 09:58:58;;;;;;;;;;;32.80;33.20;;;;;;6268909;22;20390;-92
2022/09/09 10:01:26;;;;;;;;;;;32.30;33.40;;;;;;6270914;22;19950;-89
2022/09/09 10:03:53;;;;;;;;;;;31.90;33.90;;;;;;6268347;22;19997;-88
2022/09/09 10:06:29;;;;;;;;;;;31.40;34.20;;;;;;6274335;22;19990;-93
2022/09/09 10:08:54;;;;;;;;;;;31.10;35.20;;;;;;6270067;22;19962;-88
2022/09/09 10:11:30;;;;;;;;;;;30.80;35.80;;;;;;6271691;22;19911;-89
2022/09/09 10:14:02;;;;;;;;;;;30.40;35.70;;;;;;6270199;22;20338;-92
2022/09/09 10:16:33;;;;;;;;;;;30.30;36.10;;;;;;6269417;22;20337;-88
2022/09/09 10:19:00;;;;;;;;;;;30.40;35.80;;;;;;6267753;22;19920;-86
2022/09/09 10:21:43;;;;;;;;;;;31.00;35.70;;;;;;6270625;22;19990;-91
2022/09/09 10:24:27;;;;;;;;;;;31.70;34.70;;;;;;6268936;22;20334;-86
2022/09/09 10:27:16;;;;;;;;;;;32.20;33.50;;;;;;6269291;22;19966;-91
2022/09/09 10:29:51;;;;;;;;;;;32.70;33.40;;;;;;6256274;22;19908;-92
2022/09/09 10:32:35;;;;;;;;;;;33.30;32.80;;;;;;6273775;22;20386;-89
2022/09/09 10:35:04;;;;;;;;;;;33.80;31.40;;;;;;6271043;22;19949;-84
2022/09/09 10:37:33;;;;;;;;;;;34.40;30.90;;;;;;6271846;22;19911;-90
2022/09/09 10:40:14;;;;;;;;;;;34.70;29.20;;;;;;6273406;22;19937;-89
2022/09/09 10:42:40;;;;;;;;;;;34.80;30.00;;;;;;6269289;22;19927;-88
2022/09/09 10:45:26;;;;;;;;;;;35.10;30.10;;;;;;6270531;22;19907;-92
2022/09/09 10:47:55;;;;;;;;;;;35.30;29.70;;;;;;6268968;22;20274;-89
2022/09/09 10:50:38;;;;;;;;;;;36.00;29.30;;;;;;6270019;22;19907;-90
2022/09/09 10:53:07;;;;;;;;;;;36.10;28.40;;;;;;6272765;22;20362;-86
2022/09/09 10:55:43;;;;;;;;;;;36.20;26.90;;;;;;6273710;22;19915;-86
2022/09/09 10:58:14;;;;;;;;;;;36.30;26.80;;;;;;6273544;22;19907;-85
2022/09/09 11:00:45;;;;;;;;;;;36.60;26.70;;;;;;6273572;22;19911;-85
2022/09/09 11:03:18;;;;;;;;;;;36.60;25.50;;;;;;6268131;22;19920;-93
2022/09/09 11:05:48;;;;;;;;;;;36.70;25.70;;;;;;6272349;22;20478;-89
2022/09/09 11:08:16;;;;;;;;;;;36.90;25.60;;;;;;6271295;22;19911;-86
2022/09/09 11:10:48;;;;;;;;;;;37.00;25.30;;;;;;6272355;22;19917;-93
2022/09/09 11:13:21;;;;;;;;;;;37.30;24.90;;;;;;6274098;22;20018;-86
2022/09/09 11:15:52;;;;;;;;;;;37.50;25.20;;;;;;6271524;22;19915;-90
2022/09/09 11:18:19;;;;;;;;;;;37.80;24.80;;;;;;6270281;22;19986;-93
2022/09/09 11:20:47;;;;;;;;;;;37.60;24.40;;;;;;6268377;22;19918;-85
2022/09/09 11:23:20;;;;;;;;;;;37.30;24.70;;;;;;6268838;22;19919;-88
2022/09/09 11:25:51;;;;;;;;;;;37.30;25.10;;;;;;6272964;22;19938;-91
2022/09/09 11:28:39;;;;;;;;;;;37.50;24.50;;;;;;6271422;22;19915;-89
2022/09/09 11:31:24;;;;;;;;;;;37.50;24.90;;;;;;6274340;22;19934;-90
2022/09/09 11:34:02;;;;;;;;;;;37.50;25.00;;;;;;6269575;22;19986;-86
2022/09/09 11:36:36;;;;;;;;;;;37.30;25.20;;;;;;6278506;22;20776;-88
2022/09/09 11:39:33;;;;;;;;;;;37.40;25.20;;;;;;6269275;22;19922;-89
2022/09/09 11:42:07;;;;;;;;;;;37.30;24.40;;;;;;6272103;22;19922;-87
2022/09/09 11:44:33;;;;;;;;;;;36.80;24.30;;;;;;6272114;22;19915;-88
2022/09/09 11:46:59;;;;;;;;;;;36.20;25.20;;;;;;6271743;22;19908;-88
2022/09/09 11:49:31;;;;;;;;;;;36.20;25.20;;;;;;6271772;22;19919;-87
2022/09/09 11:51:57;;;;;;;;;;;36.40;25.00;;;;;;6269881;22;19978;-85
2022/09/09 11:54:32;;;;;;;;;;;36.70;24.70;;;;;;6271246;22;20264;-85
2022/09/09 11:56:58;;;;;;;;;;;36.30;24.60;;;;;;6273234;22;20639;-87
2022/09/09 11:59:28;;;;;;;;;;;35.50;24.80;;;;;;6272300;22;19911;-89
2022/09/09 12:01:54;;;;;;;;;;;34.70;25.40;;;;;;6270008;22;19915;-85
2022/09/09 12:04:28;;;;;;;;;;;34.00;26.10;;;;;;6271613;22;19949;-89
2022/09/09 12:06:58;;;;;;;;;;;33.30;26.80;;;;;;6270684;22;19942;-89
2022/09/09 12:09:27;;;;;;;;;;;32.80;27.80;;;;;;6272602;22;19953;-87
2022/09/09 12:11:53;;;;;;;;;;;32.40;28.50;;;;;;6268582;22;19907;-86
2022/09/09 12:14:23;;;;;;;;;;;32.20;28.90;;;;;;6269381;22;19915;-90
2022/09/09 12:16:49;;;;;;;;;;;32.00;29.30;;;;;;6273625;22;19929;-88
2022/09/09 12:19:18;;;;;;;;;;;32.20;28.60;;;;;;6270596;22;20520;-85
2022/09/09 12:22:03;;;;;;;;;;;32.40;28.30;;;;;;6270828;22;19915;-92
2022/09/09 12:24:36;;;;;;;;;;;33.00;28.10;;;;;;6273230;22;19908;-86
2022/09/09 12:27:07;;;;;;;;;;;33.90;27.20;;;;;;6270355;22;19911;-85
2022/09/09 12:29:41;;;;;;;;;;;34.50;26.70;;;;;;6269935;22;19911;-88
2022/09/09 12:32:08;;;;;;;;;;;35.20;26.10;;;;;;6272929;22;19919;-85
2022/09/09 12:34:40;;;;;;;;;;;35.60;24.50;;;;;;6267729;22;19918;-88
2022/09/09 12:37:15;;;;;;;;;;;35.60;23.90;;;;;;6269220;22;19907;-85
2022/09/09 12:39:45;;;;;;;;;;;35.30;24.20;;;;;;6270142;22;19958;-85
2022/09/09 12:42:18;;;;;;;;;;;35.40;24.00;;;;;;6269383;22;20358;-87
2022/09/09 12:45:00;;;;;;;;;;;35.40;23.60;;;;;;6272752;22;19989;-89
2022/09/09 12:47:43;;;;;;;;;;;35.60;23.80;;;;;;6277154;22;19918;-92
2022/09/09 12:50:39;;;;;;;;;;;35.90;23.60;;;;;;6271897;22;20081;-92
2022/09/09 12:53:09;;;;;;;;;;;35.90;23.90;;;;;;6244036;22;19949;-87
2022/09/09 12:55:37;;;;;;;;;;;35.90;23.70;;;;;;6273635;22;19981;-91
2022/09/09 12:58:05;;;;;;;;;;;35.60;24.10;;;;;;6269511;22;19919;-90
2022/09/09 13:00:31;;;;;;;;;;;35.30;24.50;;;;;;6270452;22;19979;-93
2022/09/09 13:02:58;;;;;;;;;;;35.20;24.80;;;;;;6269827;22;19950;-88
2022/09/09 13:05:25;;;;;;;;;;;34.90;24.90;;;;;;6271242;22;19903;-88
2022/09/09 13:07:51;;;;;;;;;;;35.00;25.30;;;;;;6271553;22;19907;-85
2022/09/09 13:10:24;;;;;;;;;;;34.60;25.40;;;;;;6269341;22;19953;-88
2022/09/09 13:12:49;;;;;;;;;;;34.30;25.90;;;;;;6271262;22;19911;-86
2022/09/09 13:15:19;;;;;;;;;;;33.70;26.20;;;;;;6269378;22;19907;-91
2022/09/09 13:17:49;;;;;;;;;;;33.50;26.80;;;;;;6268524;22;19911;-85
2022/09/09 13:20:16;;;;;;;;;;;33.30;26.90;;;;;;6264755;22;20012;-86
2022/09/09 13:22:42;;;;;;;;;;;33.20;27.00;;;;;;6269176;22;19938;-89
2022/09/09 13:25:11;;;;;;;;;;;33.30;27.10;;;;;;6269913;22;19907;-92
2022/09/09 13:27:38;;;;;;;;;;;33.10;27.10;;;;;;6270994;22;20259;-88
2022/09/09 13:30:24;;;;;;;;;;;32.60;27.30;;;;;;6266730;22;19922;-92
2022/09/09 13:33:03;;;;;;;;;;;32.30;27.70;;;;;;6271760;22;20242;-86
2022/09/09 13:35:29;;;;;;;;;;;31.80;28.10;;;;;;6267603;22;19907;-88
2022/09/09 13:37:55;;;;;;;;;;;31.70;28.50;;;;;;6269493;22;19958;-86
2022/09/09 13:40:23;;;;;;;;;;;31.60;28.60;;;;;;6266271;22;20464;-92
2022/09/09 13:42:52;;;;;;;;;;;31.40;28.70;;;;;;6269042;22;19923;-90
2022/09/09 13:45:20;;;;;;;;;;;31.30;29.10;;;;;;6269049;22;19983;-90
2022/09/09 13:47:47;;;;;;;;;;;31.20;29.20;;;;;;6270569;22;20882;-93
2022/09/09 13:50:41;;;;;;;;;;;31.10;29.20;;;;;;6268390;22;19989;-89
2022/09/09 13:53:07;;;;;;;;;;;31.10;29.50;;;;;;6263063;22;19915;-85
2022/09/09 13:55:32;;;;;;;;;;;31.20;29.50;;;;;;6268960;22;19938;-91
2022/09/09 13:58:00;;;;;;;;;;;31.30;29.30;;;;;;6268995;22;19911;-87
2022/09/09 14:00:26;;;;;;;;;;;31.30;29.20;;;;;;6269380;22;19982;-88
2022/09/09 14:02:51;;;;;;;;;;;31.30;28.80;;;;;;6271609;22;20326;-90
2022/09/09 14:05:17;;;;;;;;;;;31.10;28.40;;;;;;6270233;22;20006;-90
2022/09/09 14:07:44;;;;;;;;;;;30.90;28.70;;;;;;6270507;22;19916;-86
2022/09/09 14:10:09;;;;;;;;;;;30.80;28.90;;;;;;6270867;22;19931;-88
2022/09/09 14:12:36;;;;;;;;;;;30.70;28.90;;;;;;6270299;22;19982;-92
2022/09/09 14:15:02;;;;;;;;;;;30.40;29.10;;;;;;6269874;22;19918;-88
2022/09/09 14:17:30;;;;;;;;;;;30.40;29.40;;;;;;6271997;22;19908;-89
2022/09/09 14:19:56;;;;;;;;;;;30.20;29.70;;;;;;6272229;22;19925;-86
2022/09/09 14:22:22;;;;;;;;;;;30.10;29.90;;;;;;6272398;22;19915;-85
2022/09/09 14:24:48;;;;;;;;;;;29.90;30.00;;;;;;6271416;22;20020;-86
2022/09/09 14:27:14;;;;;;;;;;;29.70;30.30;;;;;;6269247;22;19911;-89
2022/09/09 14:29:39;;;;;;;;;;;29.70;30.50;;;;;;6268511;22;19926;-88